Time;durP1;ratioP1;P1;durP2;ratioP2;P2;SDS_P1;SDS_P2;PMS_P1;PMS_P2;Temp;Humidity;BMP_temperature;BMP_pressure;BME280_temperature;BME280_humidity;BME280_pressure;Samples;Min_cycle;Max_cycle;Signal;HPM_P1;HPM_P2
2023/07/27 00:01:51;;;;;;;12.53;7.60;;;;;;;-143.84;82.79;45050.97;4969974;28;20504;-55
2023/07/27 00:04:18;;;;;;;13.30;6.97;;;;;;;-143.84;83.40;45026.22;4969856;28;20449;-55
2023/07/27 00:06:46;;;;;;;22.20;6.70;;;;;;;-143.84;84.08;45056.69;4970166;28;20877;-55
2023/07/27 00:09:15;;;;;;;19.23;6.93;;;;;;;-143.84;85.00;45058.59;4969767;28;20449;-55
2023/07/27 00:11:42;;;;;;;17.77;7.83;;;;;;;-143.84;85.51;45087.16;4970074;28;20496;-55
2023/07/27 00:14:10;;;;;;;10.27;7.70;;;;;;;-143.84;86.32;45071.91;4969912;28;20491;-55
2023/07/27 00:16:37;;;;;;;12.07;7.50;;;;;;;-143.84;86.97;45079.53;4969677;28;21001;-55
2023/07/27 00:19:04;;;;;;;14.50;7.70;;;;;;;-143.84;87.07;45064.31;4969870;28;20512;-55
2023/07/27 00:21:31;;;;;;;15.87;7.60;;;;;;;-143.84;87.25;45070.00;4969777;28;20947;-55
2023/07/27 00:23:58;;;;;;;12.10;7.03;;;;;;;-143.84;87.22;45083.34;4973559;28;20502;-55
2023/07/27 00:26:26;;;;;;;18.53;7.37;;;;;;;-143.84;87.72;45087.16;4973642;28;20449;-55
2023/07/27 00:28:53;;;;;;;14.87;8.13;;;;;;;-143.84;88.13;45079.53;4973734;28;20487;-55
2023/07/27 00:31:21;;;;;;;12.07;7.13;;;;;;;-143.84;88.69;45092.88;4973506;28;20945;-55
2023/07/27 00:33:48;;;;;;;14.53;7.97;;;;;;;-143.84;88.96;45087.16;4973292;28;20536;-55
2023/07/27 00:36:15;;;;;;;14.70;8.00;;;;;;;-143.84;89.34;45094.78;4973193;28;20505;-55
2023/07/27 00:38:42;;;;;;;16.60;8.20;;;;;;;-143.84;89.44;45075.72;4973368;28;20445;-55
2023/07/27 00:41:09;;;;;;;13.70;7.90;;;;;;;-143.84;89.61;45081.44;4973167;28;20458;-55
2023/07/27 00:43:37;;;;;;;17.00;8.30;;;;;;;-143.84;89.56;45102.38;4973307;28;20441;-55
2023/07/27 00:46:05;;;;;;;10.20;7.07;;;;;;;-143.84;89.24;45070.00;4973408;28;20482;-55
2023/07/27 00:48:32;;;;;;;20.27;8.33;;;;;;;-143.84;89.30;45070.00;4973138;28;20447;-55
2023/07/27 00:50:59;;;;;;;22.63;9.20;;;;;;;-143.84;89.18;45056.69;4973054;28;20502;-55
2023/07/27 00:53:29;;;;;;;14.03;8.43;;;;;;;-143.84;89.54;45098.56;4973138;28;20551;-55
2023/07/27 00:55:56;;;;;;;18.30;8.43;;;;;;;-143.84;89.44;45081.44;4973021;28;20878;-55
2023/07/27 00:58:24;;;;;;;20.57;8.10;;;;;;;-143.84;89.21;45054.78;4972799;28;20503;-55
2023/07/27 01:00:52;;;;;;;14.33;8.50;;;;;;;-143.84;89.41;45083.34;4973382;28;20692;-55
2023/07/27 01:03:20;;;;;;;23.13;8.40;;;;;;;-143.84;89.98;45083.34;4972899;28;20495;-55
2023/07/27 01:05:47;;;;;;;17.63;8.90;;;;;;;-143.84;90.01;45075.72;4973073;28;20452;-55
2023/07/27 01:08:14;;;;;;;18.20;8.43;;;;;;;-143.84;90.56;45094.78;4972908;28;20444;-55
2023/07/27 01:10:50;;;;;;;17.83;8.63;;;;;;;-143.84;90.75;45068.13;4972877;28;20449;-55
2023/07/27 01:13:25;;;;;;;14.23;8.33;;;;;;;-143.84;90.84;45083.34;4972621;28;20544;-55
2023/07/27 01:15:59;;;;;;;12.83;8.30;;;;;;;-143.84;90.64;45102.38;4972534;28;20505;-55
2023/07/27 01:18:34;;;;;;;19.03;8.83;;;;;;;-143.84;90.77;45092.88;4972603;28;20999;-55
2023/07/27 01:21:10;;;;;;;15.97;7.93;;;;;;;-143.84;90.58;45127.13;4972467;28;20446;-55
2023/07/27 01:24:18;;;;;;;14.70;7.47;;;;;;;-143.84;90.24;45079.53;4972920;28;21089;-55
2023/07/27 01:27:11;;;;;;;14.27;7.23;;;;;;;-143.84;89.54;45089.06;4962802;28;20537;-55
2023/07/27 01:30:04;;;;;;;18.43;7.87;;;;;;;-143.84;89.27;45083.34;4972423;28;20509;-55
2023/07/27 01:32:36;;;;;;;13.40;7.07;;;;;;;-143.84;89.26;45070.00;4972354;28;20487;-55
2023/07/27 01:35:09;;;;;;;19.57;7.10;;;;;;;-143.84;88.92;45102.38;4971051;28;20544;-55
2023/07/27 01:37:40;;;;;;;15.80;7.20;;;;;;;-143.84;88.82;45110.00;4972383;28;20443;-55
2023/07/27 01:40:10;;;;;;;14.73;7.17;;;;;;;-143.84;88.66;45087.16;4972198;28;20498;-55
2023/07/27 01:42:39;;;;;;;16.97;6.60;;;;;;;-143.84;88.64;45071.91;4972236;28;20455;-55
2023/07/27 01:45:08;;;;;;;12.47;7.40;;;;;;;-143.84;88.77;45081.44;4971462;28;20559;-55
2023/07/27 01:47:37;;;;;;;12.43;7.27;;;;;;;-143.84;88.64;45079.53;4972042;28;20446;-55
2023/07/27 01:50:07;;;;;;;13.43;6.20;;;;;;;-143.84;88.38;45090.97;4971781;28;20458;-55
2023/07/27 01:52:35;;;;;;;16.27;8.03;;;;;;;-143.84;88.10;45092.88;4971713;28;20502;-55
2023/07/27 01:55:03;;;;;;;14.77;7.30;;;;;;;-143.84;88.13;45073.81;4971734;28;20583;-55
2023/07/27 01:57:31;;;;;;;15.30;7.23;;;;;;;-143.84;88.22;45102.38;4972187;28;20521;-55
2023/07/27 01:59:59;;;;;;;11.37;7.57;;;;;;;-143.84;88.47;45089.06;4971778;28;20500;-55
2023/07/27 02:02:28;;;;;;;14.23;7.00;;;;;;;-143.84;88.71;45089.06;4972216;28;20524;-55
2023/07/27 02:04:58;;;;;;;23.73;7.07;;;;;;;-143.84;88.66;45108.09;4971779;28;20466;-55
2023/07/27 02:07:26;;;;;;;11.33;7.70;;;;;;;-143.84;88.50;45071.91;4971728;28;20447;-55
2023/07/27 02:09:53;;;;;;;14.70;8.10;;;;;;;-143.84;88.70;45073.81;4971740;28;20952;-55
2023/07/27 02:12:26;;;;;;;14.43;8.10;;;;;;;-143.84;88.45;45079.53;4971573;28;20493;-55
2023/07/27 02:15:02;;;;;;;11.70;7.13;;;;;;;-143.84;88.76;45106.19;4971774;28;20443;-55
2023/07/27 02:17:38;;;;;;;17.93;8.10;;;;;;;-143.84;88.72;45077.63;4971406;28;20542;-55
2023/07/27 02:20:11;;;;;;;13.40;7.57;;;;;;;-143.84;88.74;45102.38;4971473;28;20501;-55
2023/07/27 02:22:39;;;;;;;11.30;8.10;;;;;;;-143.84;88.63;45110.00;4971518;28;20949;-55
2023/07/27 02:25:08;;;;;;;9.60;7.87;;;;;;;-143.84;88.43;45094.78;4971394;28;20454;-55
2023/07/27 02:27:35;;;;;;;11.23;7.93;;;;;;;-143.84;88.38;45085.25;4971235;28;20446;-55
2023/07/27 02:30:03;;;;;;;14.97;8.47;;;;;;;-143.84;88.08;45075.72;4971245;28;21046;-55
2023/07/27 02:32:30;;;;;;;13.43;8.30;;;;;;;-143.84;88.27;45094.78;4971327;28;20501;-55
2023/07/27 02:34:57;;;;;;;12.10;8.67;;;;;;;-143.84;87.75;45100.47;4971486;28;20952;-55
2023/07/27 02:37:26;;;;;;;10.67;7.53;;;;;;;-143.84;88.00;45071.91;4971302;28;20499;-55
2023/07/27 02:39:53;;;;;;;12.70;8.63;;;;;;;-143.84;87.92;45087.16;4971128;28;20454;-55
2023/07/27 02:42:20;;;;;;;11.20;8.60;;;;;;;-143.84;87.85;45096.66;4971095;28;20574;-55
2023/07/27 02:44:47;;;;;;;11.27;8.40;;;;;;;-143.84;88.08;45108.09;4970743;28;20948;-55
2023/07/27 02:47:14;;;;;;;9.63;7.83;;;;;;;-143.84;88.02;45096.66;4970823;28;21053;-55
2023/07/27 02:49:41;;;;;;;11.13;9.03;;;;;;;-143.84;87.71;45075.72;4970931;28;20924;-55
2023/07/27 02:52:09;;;;;;;9.70;8.77;;;;;;;-143.84;87.15;45087.16;4971161;28;20451;-55
2023/07/27 02:54:37;;;;;;;10.50;8.17;;;;;;;-143.84;87.49;45098.56;4970727;28;21476;-55
2023/07/27 02:57:05;;;;;;;10.33;9.30;;;;;;;-143.84;87.22;45125.22;4971046;28;20532;-55
2023/07/27 02:59:32;;;;;;;11.80;9.03;;;;;;;-143.84;87.16;45083.34;4970987;28;20817;-55
2023/07/27 03:01:59;;;;;;;14.60;9.67;;;;;;;-143.84;86.82;45075.72;4970687;28;20506;-55
2023/07/27 03:04:26;;;;;;;10.03;9.00;;;;;;;-143.84;86.82;45083.34;4970584;28;20509;-55
2023/07/27 03:06:53;;;;;;;16.90;9.37;;;;;;;-143.84;86.88;45111.91;4970705;28;20867;-55
2023/07/27 03:09:20;;;;;;;12.63;8.53;;;;;;;-143.84;86.81;45087.16;4970780;28;20443;-55
2023/07/27 03:11:49;;;;;;;9.80;8.90;;;;;;;-143.84;87.08;45083.34;4970583;28;20528;-55
2023/07/27 03:14:16;;;;;;;8.57;7.70;;;;;;;-143.84;86.93;45102.38;4970564;28;20486;-55
2023/07/27 03:16:43;;;;;;;12.20;9.40;;;;;;;-143.84;86.56;45110.00;4970400;28;20434;-55
2023/07/27 03:19:10;;;;;;;10.47;9.40;;;;;;;-143.84;86.79;45100.47;4970585;28;20984;-55
2023/07/27 03:21:38;;;;;;;12.60;9.43;;;;;;;-143.84;87.10;45110.00;4968695;28;20470;-55
2023/07/27 03:24:06;;;;;;;10.37;9.17;;;;;;;-143.84;87.30;45085.25;4970335;28;20458;-55
2023/07/27 03:26:33;;;;;;;12.50;9.80;;;;;;;-143.84;87.42;45089.06;4970758;28;20442;-54
2023/07/27 03:29:01;;;;;;;12.13;9.53;;;;;;;-143.84;87.61;45085.25;4970259;28;20442;-54
2023/07/27 03:31:29;;;;;;;13.10;9.47;;;;;;;-143.84;87.36;45102.38;4970156;28;20453;-53
2023/07/27 03:33:56;;;;;;;10.70;9.27;;;;;;;-143.84;87.45;45079.53;4970336;28;21031;-54
2023/07/27 03:36:23;;;;;;;12.00;9.00;;;;;;;-143.84;87.73;45094.78;4970250;28;20449;-54
2023/07/27 03:38:50;;;;;;;14.00;9.60;;;;;;;-143.84;87.48;45121.44;4970248;28;21260;-54
2023/07/27 03:41:17;;;;;;;10.33;9.23;;;;;;;-143.84;87.66;45098.56;4970174;28;20451;-54
2023/07/27 03:43:44;;;;;;;15.13;9.70;;;;;;;-143.84;87.41;45102.38;4969864;28;20472;-54
2023/07/27 03:46:13;;;;;;;11.20;10.10;;;;;;;-143.84;87.56;45087.16;4969971;28;20442;-54
2023/07/27 03:48:40;;;;;;;12.23;9.80;;;;;;;-143.84;87.16;45111.91;4970075;28;20458;-54
2023/07/27 03:51:07;;;;;;;11.23;9.97;;;;;;;-143.84;87.23;45110.00;4970231;28;20445;-54
2023/07/27 03:53:34;;;;;;;14.70;9.90;;;;;;;-143.84;86.91;45115.72;4970083;28;20512;-54
2023/07/27 03:56:01;;;;;;;12.60;9.67;;;;;;;-143.84;87.34;45108.09;4970006;28;20486;-54
2023/07/27 03:58:29;;;;;;;10.50;9.40;;;;;;;-143.84;87.56;45117.63;4973136;28;20497;-54
2023/07/27 04:00:56;;;;;;;9.33;8.53;;;;;;;-143.84;87.46;45087.16;4974007;28;20448;-54
2023/07/27 04:03:25;;;;;;;10.97;8.00;;;;;;;-143.84;87.27;45094.78;4974216;28;20458;-54
2023/07/27 04:05:52;;;;;;;10.50;9.37;;;;;;;-143.84;87.21;45098.56;4974142;28;20447;-54
2023/07/27 04:08:19;;;;;;;11.47;10.13;;;;;;;-143.84;87.10;45098.56;4973920;28;20453;-54
2023/07/27 04:10:46;;;;;;;12.60;9.30;;;;;;;-143.84;86.93;45075.72;4974165;28;20443;-54
2023/07/27 04:13:13;;;;;;;12.90;9.10;;;;;;;-143.84;87.10;45096.66;4973893;28;20446;-54
2023/07/27 04:15:41;;;;;;;11.23;10.17;;;;;;;-143.84;87.29;45100.47;4973915;28;20434;-54
2023/07/27 04:18:08;;;;;;;10.20;9.20;;;;;;;-143.84;87.82;45070.00;4973907;28;20441;-54
2023/07/27 04:20:36;;;;;;;12.20;10.60;;;;;;;-143.84;88.98;45094.78;4973717;28;20474;-54
2023/07/27 04:23:03;;;;;;;13.77;11.00;;;;;;;-143.84;90.29;45119.53;4973807;28;20509;-54
2023/07/27 04:25:30;;;;;;;11.93;10.60;;;;;;;-143.84;91.46;45102.38;4973293;28;20556;-54
2023/07/27 04:27:58;;;;;;;16.53;11.00;;;;;;;-143.84;91.99;45077.63;4973184;28;20437;-54
2023/07/27 04:30:25;;;;;;;12.07;10.87;;;;;;;-143.84;92.32;45130.94;4973523;28;20929;-54
2023/07/27 04:32:52;;;;;;;13.47;10.57;;;;;;;-143.84;92.37;45096.66;4970968;28;20454;-54
2023/07/27 04:35:19;;;;;;;13.00;11.70;;;;;;;-143.84;92.07;45094.78;4973066;28;20509;-54
2023/07/27 04:37:47;;;;;;;11.37;10.30;;;;;;;-143.84;91.96;45136.66;4973362;28;20911;-54
2023/07/27 04:40:15;;;;;;;13.60;10.70;;;;;;;-143.84;91.93;45094.78;4973310;28;20450;-54
2023/07/27 04:42:42;;;;;;;10.97;10.07;;;;;;;-143.84;92.14;45104.28;4973498;28;20447;-54
2023/07/27 04:45:10;;;;;;;10.73;9.17;;;;;;;-143.84;91.80;45108.09;4973215;28;20518;-54
2023/07/27 04:47:37;;;;;;;15.60;9.33;;;;;;;-143.84;91.26;45106.19;4973422;28;21019;-54
2023/07/27 04:50:05;;;;;;;10.27;9.37;;;;;;;-143.84;91.11;45102.38;4973303;28;20461;-54
2023/07/27 04:52:33;;;;;;;9.70;8.67;;;;;;;-143.84;91.19;45108.09;4973286;28;20445;-54
2023/07/27 04:55:01;;;;;;;9.97;7.50;;;;;;;-143.84;90.38;45110.00;4973152;28;20504;-54
2023/07/27 04:57:28;;;;;;;8.53;7.77;;;;;;;-143.84;90.18;45104.28;4973252;28;21017;-54
2023/07/27 04:59:55;;;;;;;8.23;7.33;;;;;;;-143.84;88.93;45098.56;4973169;28;20469;-54
2023/07/27 05:02:22;;;;;;;7.73;7.00;;;;;;;-143.84;88.95;45110.00;4973368;28;20504;-54
2023/07/27 05:04:51;;;;;;;9.40;7.10;;;;;;;-143.84;89.07;45113.81;4973106;28;20978;-54
2023/07/27 05:07:19;;;;;;;7.90;7.20;;;;;;;-143.84;88.25;45110.00;4973045;28;20541;-54
2023/07/27 05:09:46;;;;;;;7.77;7.10;;;;;;;-143.84;88.24;45129.03;4972315;28;20453;-54
2023/07/27 05:12:15;;;;;;;6.77;6.17;;;;;;;-143.84;88.22;45108.09;4972289;28;20489;-54
2023/07/27 05:14:42;;;;;;;7.53;6.83;;;;;;;-143.84;87.48;45090.97;4972580;28;20556;-54
2023/07/27 05:17:09;;;;;;;6.53;6.00;;;;;;;-143.84;87.53;45121.44;4972220;28;20964;-54
2023/07/27 05:19:36;;;;;;;7.10;5.90;;;;;;;-143.84;88.39;45119.53;4972656;28;21022;-54
2023/07/27 05:22:03;;;;;;;9.33;6.30;;;;;;;-143.84;89.00;45098.56;4972880;28;20513;-54
2023/07/27 05:24:30;;;;;;;6.80;6.20;;;;;;;-143.84;89.64;45102.38;4972481;28;20443;-54
2023/07/27 05:26:57;;;;;;;8.10;5.93;;;;;;;-143.84;89.44;45075.72;4972303;28;20574;-54
2023/07/27 05:29:26;;;;;;;6.20;5.60;;;;;;;-143.84;89.85;45104.28;4972726;28;21168;-54
2023/07/27 05:31:53;;;;;;;7.53;5.93;;;;;;;-143.84;89.10;45110.00;4972711;28;20446;-54
2023/07/27 05:34:20;;;;;;;7.30;5.50;;;;;;;-143.84;88.65;45130.94;4972203;28;20544;-54
2023/07/27 05:36:47;;;;;;;6.50;6.00;;;;;;;-143.84;88.85;45146.19;4971826;28;20450;-54
2023/07/27 05:39:14;;;;;;;4.80;4.47;;;;;;;-143.84;88.63;45113.81;4971854;28;20450;-54
2023/07/27 05:41:42;;;;;;;5.30;4.80;;;;;;;-143.84;88.87;45108.09;4971930;28;20802;-54
2023/07/27 05:44:09;;;;;;;5.33;4.80;;;;;;;-143.84;88.02;45096.66;4972268;28;20858;-54
2023/07/27 05:46:37;;;;;;;5.37;4.97;;;;;;;-143.84;87.82;45123.34;4971954;28;20524;-54
2023/07/27 05:49:05;;;;;;;8.57;5.00;;;;;;;-143.84;87.26;45096.66;4971912;28;20462;-54
2023/07/27 05:51:32;;;;;;;5.07;4.57;;;;;;;-143.84;87.24;45125.22;4972157;28;21226;-54
2023/07/27 05:53:59;;;;;;;5.60;5.10;;;;;;;-143.84;87.69;45100.47;4971924;28;20560;-54
2023/07/27 05:56:26;;;;;;;7.63;5.20;;;;;;;-143.84;89.78;45102.38;4971986;28;20442;-54
2023/07/27 05:58:53;;;;;;;6.03;4.60;;;;;;;-143.84;90.92;45125.22;4971816;28;20885;-54
2023/07/27 06:01:20;;;;;;;5.80;4.77;;;;;;;-143.84;91.08;45125.22;4972028;28;20516;-54
2023/07/27 06:03:49;;;;;;;7.00;4.43;;;;;;;-143.84;90.88;45142.38;4971711;28;20450;-54
2023/07/27 06:06:16;;;;;;;5.00;4.20;;;;;;;-143.84;91.62;45123.34;4971836;28;20453;-54
2023/07/27 06:08:43;;;;;;;12.27;4.90;;;;;;;-143.84;92.57;45134.75;4971577;28;20445;-54
2023/07/27 06:11:11;;;;;;;6.60;5.57;;;;;;;-143.84;93.60;45130.94;4971565;28;20453;-54
2023/07/27 06:13:38;;;;;;;9.87;5.10;;;;;;;-143.84;94.61;45140.47;4971990;28;20436;-54
2023/07/27 06:16:05;;;;;;;13.03;5.17;;;;;;;-143.84;94.19;45146.19;4971609;28;20559;-54
2023/07/27 06:18:32;;;;;;;6.27;5.67;;;;;;;-143.84;95.05;45134.75;4971803;28;20491;-54
2023/07/27 06:21:01;;;;;;;8.60;5.43;;;;;;;-143.84;95.47;45121.44;4970877;28;20938;-54
2023/07/27 06:23:28;;;;;;;6.27;5.53;;;;;;;-143.84;95.79;45117.63;4971986;28;20510;-54
2023/07/27 06:25:55;;;;;;;12.63;5.53;;;;;;;-143.84;96.19;45129.03;4971225;28;20443;-54
2023/07/27 06:28:23;;;;;;;9.67;6.37;;;;;;;-143.84;96.78;45151.91;4971690;28;20442;-54
2023/07/27 06:30:50;;;;;;;9.60;5.87;;;;;;;-143.84;97.04;45098.56;4971322;28;20444;-54
2023/07/27 06:33:17;;;;;;;17.70;6.00;;;;;;;-143.84;97.60;45146.19;4971521;28;20520;-54
2023/07/27 06:35:44;;;;;;;11.10;5.63;;;;;;;-143.84;98.15;45140.47;4971145;28;20478;-54
2023/07/27 06:38:13;;;;;;;5.67;5.23;;;;;;;-143.84;98.54;45115.72;4971440;28;20519;-54
2023/07/27 06:40:40;;;;;;;8.77;6.10;;;;;;;-143.84;97.68;45134.75;4971244;28;20947;-54
2023/07/27 06:43:07;;;;;;;10.07;6.33;;;;;;;-143.84;97.55;45127.13;4971267;28;20551;-54
2023/07/27 06:45:35;;;;;;;7.40;5.70;;;;;;;-143.84;97.21;45123.34;4971350;28;20458;-54
2023/07/27 06:48:03;;;;;;;6.67;5.70;;;;;;;-143.84;97.36;45132.84;4971117;28;21143;-54
2023/07/27 06:50:30;;;;;;;12.03;5.80;;;;;;;-143.84;97.37;45148.09;4971115;28;20452;-54
2023/07/27 06:52:57;;;;;;;5.83;5.10;;;;;;;-143.84;95.61;45108.09;4971025;28;20447;-54
2023/07/27 06:55:26;;;;;;;5.13;4.63;;;;;;;-143.84;94.58;45134.75;4970890;28;20492;-54
2023/07/27 06:57:55;;;;;;;6.30;4.60;;;;;;;-143.84;93.07;45108.09;4971135;28;20456;-54
2023/07/27 07:00:23;;;;;;;8.30;5.17;;;;;;;-143.84;92.27;45123.34;4970766;28;20508;-54
2023/07/27 07:02:50;;;;;;;21.53;5.47;;;;;;;-143.84;91.10;45106.19;4970921;28;20525;-54
2023/07/27 07:05:17;;;;;;;10.10;4.90;;;;;;;-143.84;90.67;45098.56;4970692;28;20815;-54
2023/07/27 07:07:45;;;;;;;8.77;3.93;;;;;;;-143.84;88.90;45111.91;4970953;28;20438;-54
2023/07/27 07:10:12;;;;;;;5.70;4.20;;;;;;;-143.84;88.53;45100.47;4970685;28;20496;-54
2023/07/27 07:12:41;;;;;;;6.70;3.93;;;;;;;-143.84;89.60;45113.81;4970630;28;20536;-54
2023/07/27 07:15:09;;;;;;;6.20;4.40;;;;;;;-143.84;89.81;45132.84;4968188;28;20490;-54
2023/07/27 07:17:36;;;;;;;9.50;4.20;;;;;;;-143.84;90.15;45121.44;4970470;28;20480;-54
2023/07/27 07:20:05;;;;;;;4.97;4.40;;;;;;;-143.84;91.56;45138.56;4970579;28;20442;-54
2023/07/27 07:22:32;;;;;;;5.60;4.20;;;;;;;-143.84;92.23;45111.91;4970167;28;20457;-54
2023/07/27 07:24:59;;;;;;;6.30;4.20;;;;;;;-143.84;92.43;45132.84;4970631;28;20448;-54
2023/07/27 07:27:27;;;;;;;15.10;5.60;;;;;;;-143.84;90.99;45129.03;4970625;28;20504;-54
2023/07/27 07:29:55;;;;;;;15.80;6.50;;;;;;;-143.84;89.95;45115.72;4970410;28;20501;-54
2023/07/27 07:32:22;;;;;;;6.50;4.70;;;;;;;-143.84;88.11;45117.63;4970696;28;21063;-53
2023/07/27 07:34:51;;;;;;;13.97;5.43;;;;;;;-143.84;89.57;45100.47;4969849;28;20536;-53
2023/07/27 07:37:18;;;;;;;9.10;5.70;;;;;;;-143.84;88.88;45129.03;4969355;28;20508;-53
2023/07/27 07:39:46;;;;;;;11.97;4.63;;;;;;;-143.84;88.87;45134.75;4970395;28;20591;-53
2023/07/27 07:42:13;;;;;;;3.60;3.40;;;;;;;-143.84;89.81;45142.38;4970160;28;20451;-54
2023/07/27 07:44:40;;;;;;;6.60;4.00;;;;;;;-143.84;91.53;45106.19;4970307;28;20442;-53
2023/07/27 07:47:08;;;;;;;7.73;4.70;;;;;;;-143.84;92.64;45144.28;4970228;28;20511;-53
2023/07/27 07:49:36;;;;;;;5.60;4.27;;;;;;;-143.84;93.61;45121.44;4970153;28;20978;-54
2023/07/27 07:52:03;;;;;;;7.23;4.80;;;;;;;-143.84;91.38;45142.38;4970437;28;20448;-54
2023/07/27 07:54:30;;;;;;;4.73;4.33;;;;;;;-143.84;91.01;45132.84;4969883;28;20488;-54
2023/07/27 07:56:58;;;;;;;5.27;4.40;;;;;;;-143.84;90.70;45144.28;4970253;28;20443;-54
2023/07/27 07:59:25;;;;;;;5.20;3.90;;;;;;;-143.84;91.26;45117.63;4969956;28;20987;-54
2023/07/27 08:01:52;;;;;;;6.90;4.13;;;;;;;-143.84;91.66;45130.94;4969940;28;20455;-53
2023/07/27 08:04:20;;;;;;;5.00;3.77;;;;;;;-143.84;92.29;45127.13;4970010;28;20841;-54
2023/07/27 08:06:48;;;;;;;4.10;3.70;;;;;;;-143.84;92.81;45121.44;4969755;28;20445;-53
2023/07/27 08:09:15;;;;;;;4.80;3.37;;;;;;;-143.84;93.33;45136.66;4970092;28;21390;-54
2023/07/27 08:11:42;;;;;;;4.50;4.10;;;;;;;-143.84;93.64;45136.66;4970274;28;20454;-54
2023/07/27 08:14:09;;;;;;;9.40;4.17;;;;;;;-143.84;94.19;45129.03;4969923;28;20446;-54
2023/07/27 08:16:36;;;;;;;5.30;4.23;;;;;;;-143.84;94.29;45146.19;4969941;28;20489;-54
2023/07/27 08:19:03;;;;;;;7.50;4.30;;;;;;;-143.84;94.62;45148.09;4970031;28;20437;-54
2023/07/27 08:21:32;;;;;;;4.47;4.07;;;;;;;-143.84;95.19;45144.28;4970053;28;20450;-53
2023/07/27 08:23:59;;;;;;;7.97;4.30;;;;;;;-143.84;95.77;45146.19;4969741;28;20455;-54
2023/07/27 08:26:28;;;;;;;4.60;4.20;;;;;;;-143.84;96.04;45125.22;4969913;28;20505;-54
2023/07/27 08:28:55;;;;;;;4.20;3.80;;;;;;;-143.84;96.53;45151.91;4969975;28;20468;-54
2023/07/27 08:31:22;;;;;;;5.50;4.80;;;;;;;-143.84;96.33;45140.47;4969888;28;20482;-53
2023/07/27 08:33:49;;;;;;;5.97;4.10;;;;;;;-143.84;96.70;45140.47;4969637;28;20438;-53
2023/07/27 08:36:16;;;;;;;7.23;4.37;;;;;;;-143.84;96.53;45132.84;4969416;28;20497;-53
2023/07/27 08:38:45;;;;;;;5.43;4.10;;;;;;;-143.84;96.46;45144.28;4969614;28;20447;-54
2023/07/27 08:41:12;;;;;;;5.70;4.13;;;;;;;-143.84;96.24;45153.81;4969841;28;20840;-53
2023/07/27 08:43:39;;;;;;;7.57;4.50;;;;;;;-143.84;96.19;45123.34;4971074;28;21086;-54
2023/07/27 08:46:08;;;;;;;5.47;4.97;;;;;;;-143.84;95.08;45169.03;4973515;28;20454;-54
2023/07/27 08:48:36;;;;;;;7.03;4.50;;;;;;;-143.84;95.24;45130.94;4973042;28;20435;-54
2023/07/27 08:51:03;;;;;;;5.03;3.90;;;;;;;-143.84;95.08;45136.66;4972904;28;20446;-54
2023/07/27 08:53:31;;;;;;;4.00;3.70;;;;;;;-143.84;94.28;45132.84;4973010;28;20470;-53
2023/07/27 08:56:00;;;;;;;4.70;4.30;;;;;;;-143.84;93.53;45125.22;4972754;28;20964;-54
2023/07/27 08:58:27;;;;;;;3.93;3.67;;;;;;;-143.84;92.91;45157.59;4973183;28;20447;-54
2023/07/27 09:00:54;;;;;;;4.13;3.83;;;;;;;-143.84;93.40;45134.75;4973091;28;20855;-54
2023/07/27 09:03:22;;;;;;;5.73;4.67;;;;;;;-143.84;93.03;45119.53;4972888;28;20454;-54
2023/07/27 09:05:58;;;;;;;4.23;3.97;;;;;;;-143.84;93.04;45134.75;4972732;28;20435;-53
2023/07/27 09:08:28;;;;;;;4.90;4.20;;;;;;;-143.84;93.07;45146.19;4973307;28;20448;-54
2023/07/27 09:11:04;;;;;;;5.40;4.40;;;;;;;-143.84;93.20;45142.38;4972825;28;20456;-53
2023/07/27 09:13:33;;;;;;;4.47;4.07;;;;;;;-143.84;93.32;45148.09;4972869;28;20450;-54
2023/07/27 09:16:02;;;;;;;5.77;4.20;;;;;;;-143.84;93.42;45121.44;4972725;28;20498;-54
2023/07/27 09:18:34;;;;;;;4.13;3.83;;;;;;;-143.84;93.57;45148.09;4972528;28;20455;-54
2023/07/27 09:21:07;;;;;;;6.73;4.00;;;;;;;-143.84;93.53;45153.81;4972661;28;20443;-54
2023/07/27 09:23:34;;;;;;;4.20;3.80;;;;;;;-143.84;93.88;45121.44;4972656;28;20458;-54
2023/07/27 09:26:01;;;;;;;20.57;4.20;;;;;;;-143.84;95.10;45138.56;4972595;28;20451;-53
2023/07/27 09:28:30;;;;;;;5.30;4.80;;;;;;;-143.84;95.90;45132.84;4972384;28;20451;-53
2023/07/27 09:31:00;;;;;;;4.80;4.50;;;;;;;-143.84;96.16;45138.56;4972767;28;20473;-53
2023/07/27 09:33:28;;;;;;;5.90;4.60;;;;;;;-143.84;96.47;45130.94;4972366;28;20449;-53
2023/07/27 09:35:57;;;;;;;6.23;4.70;;;;;;;-143.84;97.04;45127.13;4972480;28;21153;-53
2023/07/27 09:38:28;;;;;;;4.90;4.40;;;;;;;-143.84;97.69;45155.69;4972193;28;21027;-53
2023/07/27 09:40:55;;;;;;;6.20;4.40;;;;;;;-143.84;98.24;45150.00;4972155;28;20454;-53
2023/07/27 09:43:25;;;;;;;5.67;5.27;;;;;;;-143.84;98.62;45155.69;4972205;28;20459;-53
2023/07/27 09:46:00;;;;;;;6.07;5.07;;;;;;;-143.84;99.24;45138.56;4972177;28;20439;-53
2023/07/27 09:48:28;;;;;;;6.93;6.30;;;;;;;-143.84;99.78;45136.66;4971984;28;20457;-53
2023/07/27 09:50:55;;;;;;;6.00;5.60;;;;;;;-143.84;100.00;45134.75;4972241;28;20457;-53
2023/07/27 09:53:22;;;;;;;6.13;5.63;;;;;;;-143.84;99.68;45138.56;4971900;28;20461;-53
2023/07/27 09:55:51;;;;;;;8.37;5.70;;;;;;;-143.84;100.00;45136.66;4970490;28;20572;-53
2023/07/27 09:58:19;;;;;;;6.00;5.40;;;;;;;-143.84;100.00;45167.13;4971897;28;20458;-53
2023/07/27 10:00:46;;;;;;;11.20;5.50;;;;;;;-143.84;100.00;45136.66;4971803;28;20882;-53
2023/07/27 10:03:15;;;;;;;5.90;5.50;;;;;;;-143.84;100.00;45136.66;4971748;28;20513;-53
2023/07/27 10:05:44;;;;;;;5.20;4.70;;;;;;;-143.84;100.00;45157.59;4972020;28;20465;-53
2023/07/27 10:08:12;;;;;;;6.67;5.93;;;;;;;-143.84;100.00;45144.28;4971804;28;21135;-53
2023/07/27 10:10:40;;;;;;;6.07;5.67;;;;;;;-143.84;100.00;45132.84;4971935;28;20578;-53
2023/07/27 10:13:11;;;;;;;6.73;6.00;;;;;;;-143.84;100.00;45136.66;4971548;28;20453;-53
2023/07/27 10:15:43;;;;;;;8.57;5.47;;;;;;;-143.84;100.00;45127.13;4971654;28;20563;-53
2023/07/27 10:18:15;;;;;;;6.53;6.03;;;;;;;-143.84;100.00;45159.50;4971488;28;20438;-53
2023/07/27 10:20:42;;;;;;;5.87;5.00;;;;;;;-143.84;100.00;45148.09;4971623;28;20522;-53
2023/07/27 10:23:12;;;;;;;6.67;5.23;;;;;;;-143.84;100.00;45129.03;4971546;28;20439;-53
2023/07/27 10:26:01;;;;;;;5.20;4.77;;;;;;;-143.84;99.77;45136.66;4971384;28;20454;-53
2023/07/27 10:28:36;;;;;;;5.00;4.50;;;;;;;-143.84;99.28;45127.13;4971312;28;20459;-53
2023/07/27 10:31:27;;;;;;;4.90;4.37;;;;;;;-143.84;99.27;45127.13;4971204;28;20979;-53
2023/07/27 10:33:58;;;;;;;5.00;4.60;;;;;;;-143.84;98.49;45129.03;4956786;28;20458;-54
2023/07/27 10:36:52;;;;;;;5.13;4.70;;;;;;;-143.84;98.18;45144.28;4971267;28;21047;-53
2023/07/27 10:39:25;;;;;;;5.00;4.43;;;;;;;-143.84;97.93;45167.13;4971370;28;20525;-53
2023/07/27 10:42:17;;;;;;;15.83;6.37;;;;;;;-143.84;97.50;45132.84;4971363;28;20465;-54
2023/07/27 10:44:47;;;;;;;4.10;3.80;;;;;;;-143.84;96.60;45150.00;4956790;28;21004;-54
2023/07/27 10:47:15;;;;;;;4.10;3.80;;;;;;;-143.84;96.75;45129.03;4971018;28;20944;-53
2023/07/27 10:49:45;;;;;;;5.27;4.20;;;;;;;-143.84;96.62;45136.66;4971179;28;20447;-53
2023/07/27 10:52:17;;;;;;;7.33;4.83;;;;;;;-143.84;96.50;45129.03;4970940;28;20458;-53
2023/07/27 10:54:45;;;;;;;5.77;3.93;;;;;;;-143.84;96.41;45119.53;4970850;28;20489;-53
2023/07/27 10:57:14;;;;;;;7.40;4.03;;;;;;;-143.84;96.21;45144.28;4970836;28;21053;-53
2023/07/27 10:59:43;;;;;;;5.60;3.87;;;;;;;-143.84;96.10;45161.41;4970671;28;20544;-54
2023/07/27 11:02:15;;;;;;;4.30;3.93;;;;;;;-143.84;95.82;45155.69;4971225;28;20469;-53
2023/07/27 11:04:44;;;;;;;3.90;3.70;;;;;;;-143.84;95.64;45125.22;4970811;28;20446;-54
2023/07/27 11:07:13;;;;;;;5.70;5.13;;;;;;;-143.84;95.66;45155.69;4970300;28;20441;-53
2023/07/27 11:09:45;;;;;;;6.03;4.03;;;;;;;-143.84;95.95;45134.75;4970869;28;20522;-53
2023/07/27 11:12:12;;;;;;;4.50;4.20;;;;;;;-143.84;96.11;45142.38;4970600;28;20446;-53
2023/07/27 11:14:39;;;;;;;4.93;4.53;;;;;;;-143.84;96.21;45167.13;4970591;28;20454;-53
2023/07/27 11:17:08;;;;;;;4.77;4.37;;;;;;;-143.84;96.08;45157.59;4970364;28;20486;-53
2023/07/27 11:19:36;;;;;;;4.10;3.90;;;;;;;-143.84;96.81;45155.69;4970758;28;20497;-53